Terminal Aerodrome Forecast
Issued by NWS

Home | Current Version | Previous Version | Text Only | Print | Product List | Glossary On
Versions: 1 2 3 4 5 6 7 8 9 10 11 12 13 14 15 16 17 18 19
000
FTUS46 KMFR 161700 RRA
TAFOTH
TAF
KOTH 161743Z 1618/1718 23006KT P6SM FEW030 SCT250
     FM162100 26009KT P6SM FEW015 SCT025 BKN140
     FM170200 VRB04KT P6SM SCT080 BKN120 OVC140
     FM170600 17007KT P6SM SCT120 OVC140=

USA.gov is the U.S. government's official web portal to all federal, state and local government web resources and services.